Time;durP1;ratioP1;P1;durP2;ratioP2;P2;SDS_P1;SDS_P2;PMS_P1;PMS_P2;Temp;Humidity;BMP_temperature;BMP_pressure;BME280_temperature;BME280_humidity;BME280_pressure;Samples;Min_cycle;Max_cycle;Signal;HPM_P1;HPM_P2
2022/11/24 00:00:17;;;;;;;17.58;7.25;;;;;;;4.81;100.00;100117.59;4998132;28;20475;-73
2022/11/24 00:02:43;;;;;;;28.77;7.45;;;;;;;4.88;100.00;100118.72;5015709;28;20036;-75
2022/11/24 00:05:08;;;;;;;25.52;8.65;;;;;;;4.85;100.00;100119.03;5014952;28;20486;-73
2022/11/24 00:07:33;;;;;;;26.30;8.38;;;;;;;4.66;100.00;100124.38;4998183;28;20022;-76
2022/11/24 00:09:59;;;;;;;22.20;7.75;;;;;;;4.69;100.00;100118.72;4997603;28;20025;-73
2022/11/24 00:12:24;;;;;;;23.88;10.02;;;;;;;4.74;100.00;100128.03;5015192;28;20033;-73
2022/11/24 00:14:49;;;;;;;23.30;8.02;;;;;;;4.82;100.00;100130.00;5015100;28;20030;-72
2022/11/24 00:17:14;;;;;;;24.77;8.80;;;;;;;4.60;100.00;100121.25;4997838;28;20026;-73
2022/11/24 00:19:40;;;;;;;27.23;9.15;;;;;;;4.72;100.00;100123.81;4998131;28;20053;-73
2022/11/24 00:22:06;;;;;;;25.25;8.48;;;;;;;4.75;100.00;100129.72;5004410;28;20453;-74
2022/11/24 00:24:31;;;;;;;25.08;7.88;;;;;;;4.84;100.00;100134.28;4991141;28;20037;-72
2022/11/24 00:26:56;;;;;;;25.70;9.10;;;;;;;4.74;100.00;100127.19;4997599;28;20034;-72
2022/11/24 00:29:22;;;;;;;21.70;8.80;;;;;;;4.70;100.00;100131.16;4997961;28;20022;-73
2022/11/24 00:31:47;;;;;;;30.50;9.63;;;;;;;4.70;100.00;100137.38;4997329;28;20493;-72
2022/11/24 00:34:13;;;;;;;23.17;9.43;;;;;;;4.77;100.00;100132.28;5014322;28;20030;-72
2022/11/24 00:36:39;;;;;;;28.83;9.60;;;;;;;4.64;100.00;100154.00;4997414;28;20022;-72
2022/11/24 00:39:09;;;;;;;27.73;9.38;;;;;;;4.66;100.00;100140.44;5014641;28;20658;-74
2022/11/24 00:41:34;;;;;;;29.90;9.60;;;;;;;4.74;100.00;100144.13;5014610;28;20028;-72
2022/11/24 00:44:00;;;;;;;25.92;9.52;;;;;;;4.83;100.00;100147.84;4996806;28;20014;-73
2022/11/24 00:46:26;;;;;;;25.25;9.57;;;;;;;4.76;100.00;100144.84;4996803;28;20030;-72
2022/11/24 00:48:52;;;;;;;28.77;9.57;;;;;;;4.84;100.00;100152.19;4997020;28;20028;-74
2022/11/24 00:51:20;;;;;;;20.27;10.07;;;;;;;4.78;100.00;100150.06;5005251;28;20025;-72
2022/11/24 00:53:45;;;;;;;21.52;9.73;;;;;;;4.69;100.00;100148.19;5013772;28;20018;-73
2022/11/24 00:56:11;;;;;;;28.60;9.18;;;;;;;4.72;100.00;100156.00;4996657;28;20037;-73
2022/11/24 00:58:37;;;;;;;26.02;9.48;;;;;;;4.58;100.00;100160.75;4997040;28;20563;-74
2022/11/24 01:01:05;;;;;;;27.30;9.35;;;;;;;4.59;100.00;100159.78;4996828;28;20121;-75
2022/11/24 01:03:31;;;;;;;25.45;9.57;;;;;;;4.58;100.00;100160.75;4996441;28;20036;-72
2022/11/24 01:06:02;;;;;;;32.25;10.30;;;;;;;4.57;100.00;100163.59;4996779;28;20034;-75
2022/11/24 01:08:27;;;;;;;36.63;10.38;;;;;;;4.54;100.00;100164.69;4996307;28;20028;-73
2022/11/24 01:10:52;;;;;;;38.33;11.00;;;;;;;4.51;100.00;100154.25;5014620;28;20033;-72
2022/11/24 01:13:18;;;;;;;24.88;11.05;;;;;;;4.52;100.00;100161.31;4996187;28;20022;-75
2022/11/24 01:15:43;;;;;;;25.05;10.35;;;;;;;4.57;100.00;100168.94;4996511;28;20053;-75
2022/11/24 01:18:12;;;;;;;30.40;9.90;;;;;;;4.50;100.00;100163.28;4996508;28;20034;-72
2022/11/24 01:20:37;;;;;;;37.60;11.98;;;;;;;4.51;100.00;100170.34;5013799;28;20120;-73
2022/11/24 01:23:02;;;;;;;36.67;11.27;;;;;;;4.59;100.00;100183.06;4997660;28;20493;-73
2022/11/24 01:25:27;;;;;;;23.10;10.73;;;;;;;4.48;100.00;100175.94;5013521;28;20041;-73
2022/11/24 01:27:53;;;;;;;31.60;11.48;;;;;;;4.59;100.00;100173.16;5006719;28;20075;-74
2022/11/24 01:30:18;;;;;;;29.50;12.73;;;;;;;4.57;100.00;100174.31;5033549;28;20375;-73
2022/11/24 01:32:44;;;;;;;26.88;11.25;;;;;;;4.68;100.00;100176.00;5015614;28;20041;-73
2022/11/24 01:35:09;;;;;;;40.53;12.63;;;;;;;4.66;100.00;100172.63;5017795;28;20038;-73
2022/11/24 01:37:34;;;;;;;36.53;13.00;;;;;;;4.70;100.00;100169.53;4996179;28;20120;-73
2022/11/24 01:40:00;;;;;;;32.40;11.50;;;;;;;4.69;100.00;100172.34;4996395;28;20025;-73
2022/11/24 01:42:25;;;;;;;40.25;13.80;;;;;;;4.53;100.00;100163.00;5012030;28;20080;-73
2022/11/24 01:45:22;;;;;;;41.88;14.48;;;;;;;4.62;100.00;100172.03;5013447;28;20050;-73
2022/11/24 01:47:48;;;;;;;41.28;13.50;;;;;;;4.57;100.00;100175.16;5013155;28;20085;-73
2022/11/24 01:50:15;;;;;;;33.70;12.90;;;;;;;4.66;100.00;100172.63;5013404;28;20029;-72
2022/11/24 01:52:46;;;;;;;31.27;11.45;;;;;;;4.59;100.00;100173.16;4995982;28;20021;-73
2022/11/24 01:55:20;;;;;;;32.17;12.13;;;;;;;4.82;100.00;100178.28;4995527;28;20048;-72
2022/11/24 01:57:54;;;;;;;34.10;11.77;;;;;;;4.87;100.00;100178.72;4995829;28;20065;-73
2022/11/24 02:00:20;;;;;;;42.38;12.73;;;;;;;4.76;100.00;100178.84;4995538;28;20030;-73
2022/11/24 02:02:45;;;;;;;37.17;11.40;;;;;;;4.63;100.00;100182.66;4993876;28;20021;-73
2022/11/24 02:05:19;;;;;;;34.53;11.68;;;;;;;4.70;100.00;100185.63;4995018;28;20033;-73
2022/11/24 02:07:46;;;;;;;35.70;12.38;;;;;;;4.68;100.00;100192.09;4995538;28;20355;-73
2022/11/24 02:10:13;;;;;;;36.95;12.57;;;;;;;4.61;100.00;100203.38;5012811;28;20164;-73
2022/11/24 02:12:43;;;;;;;37.88;11.55;;;;;;;4.59;100.00;100191.94;4995365;28;20467;-72
2022/11/24 02:15:10;;;;;;;40.53;12.48;;;;;;;4.68;100.00;100202.81;4995450;28;20041;-73
2022/11/24 02:17:36;;;;;;;28.27;10.88;;;;;;;4.85;100.00;100204.84;4995326;28;20112;-73
2022/11/24 02:20:04;;;;;;;42.28;13.13;;;;;;;4.87;100.00;100208.22;4994177;28;20119;-73
2022/11/24 02:22:48;;;;;;;25.85;12.35;;;;;;;4.89;100.00;100200.91;5012533;28;20025;-73
2022/11/24 02:25:32;;;;;;;32.95;10.90;;;;;;;4.85;100.00;100210.22;4975703;28;20057;-73
2022/11/24 02:27:59;;;;;;;36.10;11.60;;;;;;;4.95;100.00;100211.06;4986574;28;20034;-73
2022/11/24 02:30:24;;;;;;;43.05;13.32;;;;;;;4.81;100.00;100203.41;5012746;28;20029;-73
2022/11/24 02:32:51;;;;;;;34.83;12.55;;;;;;;4.85;100.00;100199.47;4994999;28;20018;-73
2022/11/24 02:35:17;;;;;;;27.00;12.25;;;;;;;4.75;100.00;100203.97;5010822;28;20037;-73
2022/11/24 02:37:43;;;;;;;25.52;11.25;;;;;;;4.73;100.00;100200.59;4995180;28;20030;-73
2022/11/24 02:40:09;;;;;;;43.15;12.20;;;;;;;4.68;100.00;100202.81;4995037;28;20040;-73
2022/11/24 02:42:44;;;;;;;38.05;13.23;;;;;;;4.67;100.00;100206.50;5012650;28;20032;-73
2022/11/24 02:45:12;;;;;;;38.72;14.40;;;;;;;4.74;100.00;100202.28;5012441;28;20030;-73
2022/11/24 02:47:37;;;;;;;40.05;14.45;;;;;;;4.68;100.00;100200.13;4995192;28;20092;-73
2022/11/24 02:50:03;;;;;;;34.80;14.65;;;;;;;4.68;100.00;100213.53;4994852;28;20042;-73
2022/11/24 02:52:28;;;;;;;33.10;12.48;;;;;;;4.70;100.00;100206.22;5010770;28;20030;-74
2022/11/24 02:54:54;;;;;;;26.85;13.70;;;;;;;4.57;100.00;100212.69;4986220;28;20470;-73
2022/11/24 02:57:21;;;;;;;27.17;12.32;;;;;;;4.60;100.00;100212.41;4995031;28;20034;-73
2022/11/24 02:59:47;;;;;;;43.10;14.95;;;;;;;4.50;100.00;100211.53;4994701;28;20030;-73
2022/11/24 03:02:12;;;;;;;42.20;15.93;;;;;;;4.46;100.00;100220.81;4994660;28;20047;-73
2022/11/24 03:04:37;;;;;;;44.03;14.45;;;;;;;4.48;100.00;100213.47;4994234;28;20076;-73
2022/11/24 03:07:02;;;;;;;32.75;15.20;;;;;;;4.54;100.00;100218.31;4994646;28;20034;-73
2022/11/24 03:09:29;;;;;;;31.55;10.77;;;;;;;4.59;100.00;100216.06;4994600;28;20029;-73
2022/11/24 03:11:54;;;;;;;38.00;14.07;;;;;;;4.65;100.00;100229.91;5011796;28;20505;-73
2022/11/24 03:14:20;;;;;;;36.80;13.25;;;;;;;4.59;100.00;100216.06;5101327;23;20045;-77
2022/11/24 03:16:45;;;;;;;40.65;16.10;;;;;;;4.36;100.00;100219.91;5002631;28;20041;-77
2022/11/24 03:19:10;;;;;;;43.80;16.42;;;;;;;4.47;100.00;100218.97;4995047;28;20045;-77
2022/11/24 03:21:36;;;;;;;31.00;14.85;;;;;;;4.43;100.00;100225.59;4990784;28;20030;-77
2022/11/24 03:24:01;;;;;;;49.35;14.82;;;;;;;4.42;100.00;100224.72;4992651;28;20029;-76
2022/11/24 03:26:27;;;;;;;37.90;15.32;;;;;;;4.44;100.00;100222.78;4993855;28;20033;-76
2022/11/24 03:28:55;;;;;;;44.75;16.70;;;;;;;4.37;100.00;100232.34;5012116;28;20044;-76
2022/11/24 03:31:21;;;;;;;38.00;14.82;;;;;;;4.35;100.00;100235.16;4993855;28;20233;-76
2022/11/24 03:33:46;;;;;;;48.40;14.38;;;;;;;4.46;100.00;100236.06;4994153;28;20032;-76
2022/11/24 03:36:12;;;;;;;34.40;14.05;;;;;;;4.43;100.00;100225.59;4994250;28;20120;-77
2022/11/24 03:38:37;;;;;;;46.65;15.30;;;;;;;4.43;100.00;100230.94;4994574;28;20026;-77
2022/11/24 03:41:02;;;;;;;40.85;15.13;;;;;;;4.44;100.00;100248.75;4994710;28;20033;-75
2022/11/24 03:43:28;;;;;;;37.10;15.60;;;;;;;4.44;100.00;100248.75;5012059;28;20041;-76
2022/11/24 03:45:53;;;;;;;37.08;13.55;;;;;;;4.50;100.00;100249.06;5007765;28;20033;-76
2022/11/24 03:48:21;;;;;;;37.95;12.98;;;;;;;4.57;100.00;100266.31;5011197;28;20036;-77
2022/11/24 03:51:02;;;;;;;43.97;14.52;;;;;;;4.61;100.00;100256.97;5003374;28;20065;-75
2022/11/24 03:53:30;;;;;;;42.00;15.32;;;;;;;4.60;100.00;100255.28;4994005;28;20029;-76
2022/11/24 03:55:56;;;;;;;36.88;15.07;;;;;;;4.69;100.00;100258.13;4994504;28;20487;-76
2022/11/24 03:58:22;;;;;;;40.22;15.60;;;;;;;4.75;100.00;100257.59;4994865;28;20087;-75
2022/11/24 04:00:48;;;;;;;42.40;12.88;;;;;;;4.71;100.00;100261.56;4994902;28;20378;-77
2022/11/24 04:03:14;;;;;;;33.72;12.93;;;;;;;4.70;100.00;100260.72;4994393;28;20022;-75
2022/11/24 04:05:39;;;;;;;36.42;13.00;;;;;;;4.76;100.00;100264.66;5011910;28;20032;-76
2022/11/24 04:08:05;;;;;;;38.10;14.95;;;;;;;4.66;100.00;100264.63;4994827;28;20064;-76
2022/11/24 04:10:34;;;;;;;37.22;14.55;;;;;;;4.70;100.00;100282.16;4994545;28;20037;-76
2022/11/24 04:13:00;;;;;;;39.53;14.77;;;;;;;4.77;100.00;100279.78;4994422;28;20034;-76
2022/11/24 04:15:25;;;;;;;32.88;14.18;;;;;;;4.90;100.00;100272.34;4993844;28;20160;-76
2022/11/24 04:17:54;;;;;;;31.73;14.23;;;;;;;4.90;100.00;100289.28;4994609;28;20084;-76
2022/11/24 04:20:19;;;;;;;37.30;14.35;;;;;;;4.88;100.00;100290.38;5011944;28;20069;-76
2022/11/24 04:22:44;;;;;;;34.38;13.73;;;;;;;4.93;100.00;100288.16;4988256;28;20042;-76
2022/11/24 04:25:10;;;;;;;29.83;13.98;;;;;;;4.94;100.00;100305.94;4993807;28;20041;-76
2022/11/24 04:27:36;;;;;;;36.08;14.10;;;;;;;4.97;100.00;100305.69;5011945;28;20042;-76
2022/11/24 04:30:03;;;;;;;41.92;14.50;;;;;;;5.13;100.00;100306.00;5012103;28;20303;-78
2022/11/24 04:32:29;;;;;;;42.30;11.95;;;;;;;5.04;100.00;100306.84;5011361;28;20053;-76
2022/11/24 04:34:54;;;;;;;31.42;13.02;;;;;;;5.05;100.00;100308.53;4994409;28;20061;-75
2022/11/24 04:37:20;;;;;;;43.90;12.75;;;;;;;5.12;100.00;100303.47;5011956;28;20052;-76
2022/11/24 04:39:45;;;;;;;32.72;12.63;;;;;;;4.97;100.00;100315.56;4994104;28;20033;-76
2022/11/24 04:42:11;;;;;;;38.47;15.30;;;;;;;5.09;100.00;100315.31;4994821;28;20060;-75
2022/11/24 04:44:37;;;;;;;36.05;13.30;;;;;;;5.05;100.00;100308.53;4997727;28;20067;-76
2022/11/24 04:47:02;;;;;;;33.47;13.55;;;;;;;5.07;100.00;100311.91;5015209;28;20054;-76
2022/11/24 04:49:28;;;;;;;36.63;14.00;;;;;;;5.14;100.00;100323.78;4997675;28;20061;-76
2022/11/24 04:51:53;;;;;;;36.28;13.48;;;;;;;5.06;100.00;100320.94;4999024;28;20026;-76
2022/11/24 04:54:18;;;;;;;41.47;14.40;;;;;;;5.27;100.00;100317.31;4997524;28;20021;-76
2022/11/24 04:56:44;;;;;;;29.13;12.00;;;;;;;5.27;100.00;100317.31;5014111;28;20115;-76
2022/11/24 04:59:15;;;;;;;29.33;13.70;;;;;;;5.33;100.00;100327.50;4997496;28;20046;-76
2022/11/24 05:01:42;;;;;;;34.25;14.15;;;;;;;5.25;100.00;100324.69;4997290;28;20073;-76
2022/11/24 05:04:12;;;;;;;38.85;12.93;;;;;;;5.20;100.00;100332.28;4996975;28;20022;-76
2022/11/24 05:06:38;;;;;;;30.20;13.48;;;;;;;5.21;100.00;100328.63;4997349;28;20048;-78
2022/11/24 05:09:05;;;;;;;39.88;13.93;;;;;;;5.26;100.00;100337.09;5014604;28;20477;-76
2022/11/24 05:11:30;;;;;;;28.98;13.65;;;;;;;5.23;100.00;100332.03;4997149;28;20085;-76
2022/11/24 05:13:56;;;;;;;44.92;14.90;;;;;;;5.28;100.00;100335.13;4996621;28;20030;-75
2022/11/24 05:16:21;;;;;;;42.63;14.23;;;;;;;5.37;100.00;100335.16;4997486;28;20026;-76
2022/11/24 05:18:47;;;;;;;39.45;15.18;;;;;;;5.47;100.00;100339.69;4997007;28;20044;-76
2022/11/24 05:21:12;;;;;;;31.20;13.60;;;;;;;5.39;100.00;100340.38;4996751;28;20032;-76
2022/11/24 05:23:37;;;;;;;35.97;13.43;;;;;;;5.45;100.00;100342.53;4991621;28;20044;-76
2022/11/24 05:26:03;;;;;;;46.13;13.95;;;;;;;5.50;100.00;100344.81;4996441;28;20026;-76
2022/11/24 05:28:29;;;;;;;33.58;13.68;;;;;;;5.37;100.00;100353.09;4997062;28;20029;-76
2022/11/24 05:30:58;;;;;;;34.60;13.90;;;;;;;5.50;100.00;100356.38;4997009;28;20036;-76
2022/11/24 05:33:23;;;;;;;39.58;13.75;;;;;;;5.62;100.00;100349.91;4996279;28;20057;-75
2022/11/24 05:35:49;;;;;;;34.33;12.85;;;;;;;5.56;100.00;100350.47;5013545;28;20038;-75
2022/11/24 05:38:16;;;;;;;60.30;14.77;;;;;;;5.50;100.00;100353.69;5013816;28;20513;-75
2022/11/24 05:40:42;;;;;;;39.03;13.90;;;;;;;5.47;100.00;100351.28;5013941;28;20491;-75
2022/11/24 05:43:12;;;;;;;40.08;12.75;;;;;;;5.60;100.00;100353.69;5013756;28;20022;-76
2022/11/24 05:45:38;;;;;;;38.22;14.65;;;;;;;5.51;100.00;100358.06;4996323;28;20032;-76
2022/11/24 05:48:08;;;;;;;38.83;15.52;;;;;;;5.40;100.00;100355.50;4996127;28;20116;-76
2022/11/24 05:50:34;;;;;;;38.20;14.13;;;;;;;5.48;100.00;100362.88;4995988;28;20030;-77
2022/11/24 05:53:09;;;;;;;39.72;13.02;;;;;;;5.42;100.00;100365.13;4997587;28;20557;-76
2022/11/24 05:55:35;;;;;;;38.88;13.50;;;;;;;5.42;100.00;100364.28;4995615;28;20065;-76
2022/11/24 05:58:03;;;;;;;42.75;14.93;;;;;;;5.35;100.00;100373.88;5013977;28;20124;-76
2022/11/24 06:00:31;;;;;;;38.88;13.35;;;;;;;5.33;100.00;100375.84;5013324;28;20083;-76
2022/11/24 06:02:57;;;;;;;40.33;14.75;;;;;;;5.40;100.00;100380.50;4996102;28;20025;-76
2022/11/24 06:05:23;;;;;;;34.15;14.57;;;;;;;5.50;100.00;100377.88;4995558;28;20037;-76
2022/11/24 06:07:48;;;;;;;33.58;13.93;;;;;;;5.64;100.00;100379.31;5013894;28;20033;-76
2022/11/24 06:10:18;;;;;;;41.67;14.18;;;;;;;5.45;100.00;100375.59;4996125;28;20030;-76
2022/11/24 06:12:44;;;;;;;30.17;13.05;;;;;;;5.50;100.00;100375.19;4996152;28;20466;-74
2022/11/24 06:15:10;;;;;;;35.55;13.30;;;;;;;5.63;100.00;100378.47;5013565;28;20123;-75
2022/11/24 06:17:37;;;;;;;43.63;13.57;;;;;;;5.58;100.00;100386.06;4996539;28;20038;-77
2022/11/24 06:20:03;;;;;;;42.63;14.65;;;;;;;5.70;100.00;100378.75;4995932;28;20042;-76
2022/11/24 06:22:28;;;;;;;43.47;14.82;;;;;;;5.63;100.00;100378.47;5006022;28;20022;-76
2022/11/24 06:24:53;;;;;;;37.35;12.23;;;;;;;5.57;100.00;100384.38;4995226;28;20021;-76
2022/11/24 06:27:19;;;;;;;44.63;14.25;;;;;;;5.76;100.00;100393.47;4995532;28;20040;-75
2022/11/24 06:29:44;;;;;;;36.13;14.25;;;;;;;5.86;100.00;100397.00;4996602;28;20037;-75
2022/11/24 06:32:09;;;;;;;37.30;12.10;;;;;;;5.80;100.00;100394.88;5013156;28;20080;-75
2022/11/24 06:34:35;;;;;;;37.38;14.13;;;;;;;5.52;100.00;100397.38;4995113;28;20092;-75
2022/11/24 06:37:00;;;;;;;45.85;15.23;;;;;;;5.61;100.00;100409.97;4995964;28;20125;-75
2022/11/24 06:39:26;;;;;;;50.75;15.43;;;;;;;5.66;100.00;100409.53;4995706;28;20057;-75
2022/11/24 06:41:51;;;;;;;35.17;13.82;;;;;;;5.62;100.00;100409.00;4995250;28;20037;-77
2022/11/24 06:44:17;;;;;;;38.90;14.07;;;;;;;5.58;100.00;100412.94;5012878;28;20021;-76
2022/11/24 06:46:43;;;;;;;56.90;15.60;;;;;;;5.68;100.00;100416.50;4994806;28;20030;-76
2022/11/24 06:49:08;;;;;;;31.77;13.52;;;;;;;5.57;100.00;100427.34;4994673;28;20030;-76
2022/11/24 06:51:34;;;;;;;42.25;14.75;;;;;;;5.68;100.00;100424.56;5011697;28;20022;-76
2022/11/24 06:54:00;;;;;;;44.95;14.65;;;;;;;5.55;100.00;100418.59;4986116;28;20071;-76
2022/11/24 06:56:26;;;;;;;31.85;12.32;;;;;;;5.73;100.00;100427.66;4994480;28;20061;-76
2022/11/24 06:58:52;;;;;;;37.17;14.80;;;;;;;5.60;100.00;100427.06;4994223;28;20072;-76
2022/11/24 07:01:23;;;;;;;42.00;15.52;;;;;;;5.61;100.00;100428.78;4994199;28;20081;-76
2022/11/24 07:03:50;;;;;;;41.50;13.90;;;;;;;5.62;100.00;100433.16;4994507;28;20017;-76
2022/11/24 07:06:16;;;;;;;54.30;15.90;;;;;;;5.71;100.00;100437.69;4994017;28;20025;-76
2022/11/24 07:08:41;;;;;;;52.78;15.75;;;;;;;5.55;100.00;100439.22;4994585;28;20021;-77
2022/11/24 07:11:09;;;;;;;44.38;15.95;;;;;;;5.56;100.00;100444.44;4994250;28;20026;-76
2022/11/24 07:13:35;;;;;;;56.70;16.00;;;;;;;5.46;100.00;100451.59;4993740;28;20037;-77
2022/11/24 07:16:33;;;;;;;46.00;13.48;;;;;;;5.57;100.00;100438.09;5011127;28;20030;-76
2022/11/24 07:18:59;;;;;;;50.60;16.50;;;;;;;5.45;100.00;100456.13;4935747;28;20041;-76
2022/11/24 07:21:25;;;;;;;53.20;16.90;;;;;;;5.51;100.00;100454.75;4990901;28;20497;-77
2022/11/24 07:23:53;;;;;;;48.17;16.10;;;;;;;5.53;100.00;100458.13;4986385;28;20026;-77
2022/11/24 07:26:18;;;;;;;61.70;17.40;;;;;;;5.54;100.00;100454.50;5011558;28;20061;-77
2022/11/24 07:28:44;;;;;;;45.97;15.93;;;;;;;5.55;100.00;100461.56;4993559;28;20101;-77
2022/11/24 07:31:13;;;;;;;44.42;16.40;;;;;;;5.43;100.00;100462.63;4993598;28;20033;-77
2022/11/24 07:33:38;;;;;;;44.67;16.52;;;;;;;5.40;100.00;100462.88;4993291;28;20061;-78
2022/11/24 07:36:05;;;;;;;51.58;17.25;;;;;;;5.42;100.00;100471.69;5011467;28;20124;-76
2022/11/24 07:38:32;;;;;;;59.10;17.77;;;;;;;5.54;100.00;100481.34;4994074;28;20030;-76
2022/11/24 07:41:08;;;;;;;46.67;16.50;;;;;;;5.62;100.00;100483.34;4994115;28;20069;-78
2022/11/24 07:43:39;;;;;;;55.83;17.77;;;;;;;5.59;100.00;100481.75;4995016;28;20378;-77
2022/11/24 07:46:08;;;;;;;45.30;16.45;;;;;;;5.52;100.00;100487.81;4994190;28;20025;-77
2022/11/24 07:48:34;;;;;;;53.00;15.85;;;;;;;5.60;100.00;100490.66;4998224;28;20015;-76
2022/11/24 07:51:01;;;;;;;53.42;18.30;;;;;;;5.53;100.00;100495.72;4973882;28;20036;-76
2022/11/24 07:53:27;;;;;;;73.78;17.85;;;;;;;5.61;100.00;100498.59;4991623;28;20101;-77
2022/11/24 07:55:59;;;;;;;44.03;16.38;;;;;;;5.56;100.00;100510.72;4994220;28;20037;-76
2022/11/24 07:58:26;;;;;;;48.42;17.48;;;;;;;5.65;100.00;100510.75;4986058;28;20037;-77
2022/11/24 08:00:51;;;;;;;57.88;17.58;;;;;;;5.63;100.00;100512.75;4995570;28;20033;-76
2022/11/24 08:03:19;;;;;;;37.33;18.50;;;;;;;5.64;100.00;100502.84;4994011;28;20026;-76
2022/11/24 08:05:58;;;;;;;52.75;18.48;;;;;;;5.67;100.00;100519.56;4993374;28;20052;-76
2022/11/24 08:08:24;;;;;;;40.80;15.60;;;;;;;5.83;100.00;100512.81;4991426;28;20038;-76
2022/11/24 08:10:50;;;;;;;51.80;16.58;;;;;;;5.76;100.00;100522.41;4995454;28;20026;-76
2022/11/24 08:13:16;;;;;;;51.58;17.63;;;;;;;5.70;100.00;100529.16;4994959;28;20056;-76
2022/11/24 08:15:41;;;;;;;51.22;17.83;;;;;;;5.55;100.00;100526.00;5008493;28;20125;-76
2022/11/24 08:18:06;;;;;;;56.70;18.80;;;;;;;5.57;100.00;100529.38;4997370;28;20021;-75
2022/11/24 08:20:32;;;;;;;65.78;19.63;;;;;;;5.76;100.00;100527.78;4992913;28;20018;-76
2022/11/24 08:22:58;;;;;;;51.33;16.85;;;;;;;5.84;100.00;100531.47;4995761;28;20060;-75
2022/11/24 08:25:30;;;;;;;59.65;19.35;;;;;;;5.73;100.00;100534.25;4986676;28;20045;-76
2022/11/24 08:27:56;;;;;;;62.72;19.10;;;;;;;5.94;100.00;100542.31;4999027;28;20104;-77
2022/11/24 08:30:21;;;;;;;57.45;17.40;;;;;;;5.98;100.00;100543.72;4993068;28;20122;-75
2022/11/24 08:32:49;;;;;;;48.92;17.17;;;;;;;6.06;100.00;100541.19;4993186;28;20101;-75
2022/11/24 08:35:15;;;;;;;44.53;16.83;;;;;;;6.07;100.00;100550.13;4995406;28;20079;-76
2022/11/24 08:37:40;;;;;;;37.17;13.73;;;;;;;6.18;100.00;100545.44;4998790;28;20021;-75
2022/11/24 08:40:06;;;;;;;54.70;15.20;;;;;;;6.19;100.00;100546.31;4994244;28;20557;-75
2022/11/24 08:42:32;;;;;;;40.58;15.30;;;;;;;6.24;100.00;100539.53;4995690;28;20022;-77
2022/11/24 08:44:57;;;;;;;51.95;16.00;;;;;;;6.13;100.00;100552.22;4998773;28;20033;-74
2022/11/24 08:47:22;;;;;;;53.00;15.60;;;;;;;6.21;100.00;100550.56;5014864;28;20109;-76
2022/11/24 08:49:48;;;;;;;52.08;17.52;;;;;;;6.37;100.00;100558.09;4995399;28;20100;-75
2022/11/24 08:52:15;;;;;;;60.97;16.23;;;;;;;6.50;100.00;100555.13;4992482;28;20025;-77
2022/11/24 08:54:43;;;;;;;55.75;15.98;;;;;;;6.45;100.00;100552.00;4980292;28;20026;-76
2022/11/24 08:57:08;;;;;;;54.33;19.15;;;;;;;6.41;100.00;100555.97;4996808;28;20486;-76
2022/11/24 08:59:34;;;;;;;37.15;15.00;;;;;;;6.54;100.00;100561.94;5009935;28;20017;-76
2022/11/24 09:01:59;;;;;;;50.08;14.85;;;;;;;6.57;100.00;100564.34;5008252;28;20021;-76
2022/11/24 09:04:25;;;;;;;36.22;13.18;;;;;;;6.69;100.00;100568.59;4997087;28;20390;-76
2022/11/24 09:06:50;;;;;;;42.67;13.18;;;;;;;6.56;100.00;100575.25;4994508;28;20481;-75
2022/11/24 09:09:16;;;;;;;38.72;12.98;;;;;;;6.67;100.00;100573.28;5019146;28;20505;-76
2022/11/24 09:11:42;;;;;;;47.78;13.30;;;;;;;6.73;100.00;100572.72;4990455;28;20022;-75
2022/11/24 09:14:07;;;;;;;54.10;11.55;;;;;;;6.79;100.00;100582.94;4990614;28;20017;-76
2022/11/24 09:16:33;;;;;;;41.78;11.85;;;;;;;6.64;100.00;100584.31;4991721;28;20056;-77
2022/11/24 09:19:01;;;;;;;52.63;12.95;;;;;;;6.75;100.00;100586.88;4991678;28;20045;-76
2022/11/24 09:21:27;;;;;;;36.13;11.68;;;;;;;6.80;100.00;100584.63;4994247;28;20037;-76
2022/11/24 09:23:53;;;;;;;47.38;14.40;;;;;;;6.71;100.00;100589.97;5014092;28;20028;-76
2022/11/24 09:26:22;;;;;;;37.03;12.38;;;;;;;6.65;100.00;100588.72;5009144;28;20125;-76
2022/11/24 09:28:48;;;;;;;36.97;12.98;;;;;;;6.87;100.00;100589.44;4991575;28;20049;-76
2022/11/24 09:31:16;;;;;;;38.75;12.70;;;;;;;6.69;100.00;100598.19;5013806;28;20029;-76
2022/11/24 09:33:42;;;;;;;37.70;11.38;;;;;;;6.94;100.00;100598.63;4998144;28;20018;-76
2022/11/24 09:36:08;;;;;;;52.28;13.00;;;;;;;7.03;100.00;100600.47;5018754;28;20040;-75
2022/11/24 09:38:33;;;;;;;40.38;11.80;;;;;;;6.88;100.00;100601.91;4996397;28;20033;-76
2022/11/24 09:41:38;;;;;;;33.88;12.80;;;;;;;6.88;100.00;100596.53;4997496;28;20087;-76
2022/11/24 09:44:19;;;;;;;32.92;11.05;;;;;;;7.02;100.00;100604.16;4978458;28;20037;-76
2022/11/24 09:46:52;;;;;;;47.93;11.77;;;;;;;7.12;100.00;100598.78;4997003;28;20036;-75
2022/11/24 09:49:52;;;;;;;40.42;11.60;;;;;;;7.22;100.00;100600.47;4990683;28;20026;-76
2022/11/24 09:52:40;;;;;;;43.10;11.13;;;;;;;7.31;100.00;100605.00;4991974;28;20034;-76
2022/11/24 09:55:32;;;;;;;40.60;11.20;;;;;;;7.55;100.00;100606.38;4989723;28;20108;-76
2022/11/24 09:58:13;;;;;;;36.00;11.57;;;;;;;7.37;100.00;100597.31;4991479;28;20029;-75
2022/11/24 10:00:39;;;;;;;42.10;10.73;;;;;;;7.37;100.00;100602.69;4991178;28;20026;-75
2022/11/24 10:03:09;;;;;;;31.25;9.57;;;;;;;7.58;100.00;100600.69;4991460;28;20056;-75
2022/11/24 10:05:35;;;;;;;38.08;10.63;;;;;;;7.86;100.00;100599.75;5002183;28;20013;-74
2022/11/24 10:08:18;;;;;;;37.67;9.63;;;;;;;7.84;100.00;100604.44;5008660;28;20121;-75
2022/11/24 10:11:10;;;;;;;38.75;9.02;;;;;;;8.08;100.00;100603.06;4992454;28;20022;-75
2022/11/24 10:14:10;;;;;;;39.85;10.15;;;;;;;8.09;100.00;100607.47;4989210;28;20017;-76
2022/11/24 10:16:51;;;;;;;50.35;10.73;;;;;;;8.11;100.00;100608.16;5010525;28;20088;-75
2022/11/24 10:19:36;;;;;;;36.20;8.73;;;;;;;8.20;100.00;100611.81;4984919;28;20022;-75
2022/11/24 10:22:19;;;;;;;40.17;9.57;;;;;;;8.32;100.00;100611.47;5005004;28;20124;-74
2022/11/24 10:25:06;;;;;;;40.00;9.20;;;;;;;8.53;100.00;100622.03;4987251;28;20061;-74
2022/11/24 10:27:40;;;;;;;32.10;8.30;;;;;;;8.69;100.00;100624.06;5013223;28;20018;-76
2022/11/24 10:30:22;;;;;;;25.85;8.38;;;;;;;8.75;100.00;100628.88;4985295;28;20418;-75
2022/11/24 10:33:02;;;;;;;31.17;8.48;;;;;;;8.52;100.00;100632.97;5014605;28;20021;-75
2022/11/24 10:35:52;;;;;;;35.47;8.27;;;;;;;8.71;100.00;100627.47;4995676;28;20044;-76
2022/11/24 10:38:30;;;;;;;45.65;9.57;;;;;;;8.80;100.00;100631.97;4984538;28;20056;-75
2022/11/24 10:41:04;;;;;;;36.53;8.57;;;;;;;8.64;100.00;100632.63;5008890;28;20037;-76
2022/11/24 10:43:29;;;;;;;30.15;10.00;;;;;;;8.66;100.00;100635.16;4993692;28;20029;-75
2022/11/24 10:46:09;;;;;;;36.33;10.35;;;;;;;8.61;100.00;100626.69;4991882;28;20449;-75
2022/11/24 10:48:47;;;;;;;50.90;9.95;;;;;;;8.55;100.00;100632.69;4999662;28;20049;-75
2022/11/24 10:51:49;;;;;;;41.70;10.15;;;;;;;8.85;100.00;100635.03;5012214;28;20108;-75
2022/11/24 10:54:21;;;;;;;39.70;8.52;;;;;;;8.76;100.00;100632.41;4993372;28;20058;-75
2022/11/24 10:56:50;;;;;;;33.08;8.68;;;;;;;8.73;100.00;100630.84;4990518;28;20026;-76
2022/11/24 10:59:22;;;;;;;38.55;10.13;;;;;;;8.69;100.00;100634.88;4991066;28;20036;-76
2022/11/24 11:01:48;;;;;;;39.33;9.40;;;;;;;8.68;100.00;100650.22;4985073;28;20071;-76
2022/11/24 11:04:25;;;;;;;39.67;9.27;;;;;;;8.80;100.00;100640.06;4989325;28;20112;-76
2022/11/24 11:06:51;;;;;;;42.97;9.88;;;;;;;8.88;100.00;100650.94;4984784;28;20026;-76
2022/11/24 11:09:21;;;;;;;45.97;9.20;;;;;;;8.89;100.00;100641.81;4982276;28;20099;-76
2022/11/24 11:11:47;;;;;;;33.95;8.93;;;;;;;9.22;100.00;100642.13;4988883;28;20026;-74
2022/11/24 11:14:30;;;;;;;38.50;9.68;;;;;;;9.09;100.00;100641.69;4987530;28;20419;-78
2022/11/24 11:16:59;;;;;;;36.95;9.75;;;;;;;9.32;100.00;100637.47;4996185;28;20026;-75